Time;durP1;ratioP1;P1;durP2;ratioP2;P2;SDS_P1;SDS_P2;PMS_P1;PMS_P2;Temp;Humidity;BMP_temperature;BMP_pressure;BME280_temperature;BME280_humidity;BME280_pressure;Samples;Min_cycle;Max_cycle;Signal;HPM_P1;HPM_P2
2022/11/24 00:01:21;;;;;;;2.13;0.15;;;;;;;5.62;100.00;99214.50;5015455;28;20030;-62
2022/11/24 00:03:53;;;;;;;0.20;0.20;;;;;;;5.56;100.00;99217.88;5016934;28;20079;-61
2022/11/24 00:06:19;;;;;;;0.20;0.08;;;;;;;5.49;100.00;99215.19;5016191;28;20522;-61
2022/11/24 00:08:45;;;;;;;0.55;0.00;;;;;;;5.42;100.00;99220.41;5007347;28;20116;-61
2022/11/24 00:11:17;;;;;;;0.08;0.08;;;;;;;5.40;100.00;99211.88;5014555;28;20047;-59
2022/11/24 00:13:43;;;;;;;0.10;0.10;;;;;;;5.37;100.00;99208.81;5017895;28;20463;-61
2022/11/24 00:16:11;;;;;;;0.05;0.00;;;;;;;5.35;100.00;99203.75;5000377;28;20230;-61
2022/11/24 00:18:38;;;;;;;0.75;0.03;;;;;;;5.32;100.00;99209.38;5020948;28;21121;-61
2022/11/24 00:21:03;;;;;;;0.15;0.00;;;;;;;5.28;100.00;99196.81;5019691;28;20030;-61
2022/11/24 00:23:28;;;;;;;0.05;0.03;;;;;;;5.25;100.00;99213.75;5020538;28;20029;-61
2022/11/24 00:25:54;;;;;;;1.48;0.00;;;;;;;5.27;100.00;99221.44;5003310;28;20030;-61
2022/11/24 00:28:19;;;;;;;0.25;0.25;;;;;;;5.27;100.00;99235.41;5021091;28;20104;-61
2022/11/24 00:30:44;;;;;;;1.02;0.30;;;;;;;5.23;100.00;99255.19;5021435;28;20021;-61
2022/11/24 00:33:10;;;;;;;0.10;0.10;;;;;;;5.19;100.00;99256.56;5020781;28;20057;-61
2022/11/24 00:35:35;;;;;;;0.25;0.00;;;;;;;5.09;100.00;99267.38;5020275;28;20044;-61
2022/11/24 00:38:00;;;;;;;0.00;0.00;;;;;;;5.03;100.00;99271.56;5019188;28;20057;-61
2022/11/24 00:40:26;;;;;;;0.32;0.32;;;;;;;4.96;100.00;99283.78;5021310;28;20053;-61
2022/11/24 00:42:51;;;;;;;0.98;0.63;;;;;;;4.99;100.00;99293.94;5021925;28;20044;-61
2022/11/24 00:45:16;;;;;;;0.00;0.00;;;;;;;4.94;100.00;99291.03;5021943;28;20033;-61
2022/11/24 00:47:42;;;;;;;3.72;1.10;;;;;;;4.92;100.00;99300.91;5021179;28;20032;-61
2022/11/24 00:50:08;;;;;;;4.03;1.45;;;;;;;4.94;100.00;99301.53;5022989;28;20091;-61
2022/11/24 00:52:33;;;;;;;0.65;0.65;;;;;;;4.89;100.00;99303.91;5026618;28;20508;-61
2022/11/24 00:54:58;;;;;;;0.60;0.35;;;;;;;4.83;100.00;99312.53;5026624;28;20017;-61
2022/11/24 00:57:23;;;;;;;0.52;0.00;;;;;;;4.77;100.00;99326.38;5027083;28;20033;-61
2022/11/24 00:59:49;;;;;;;0.10;0.00;;;;;;;4.74;100.00;99324.91;5022916;28;20167;-61
2022/11/24 01:02:14;;;;;;;0.00;0.00;;;;;;;4.67;100.00;99324.00;5026109;28;20052;-61
2022/11/24 01:04:39;;;;;;;1.10;0.00;;;;;;;4.66;100.00;99330.25;5026355;28;20033;-61
2022/11/24 01:07:05;;;;;;;0.00;0.00;;;;;;;4.57;100.00;99324.28;5031153;28;20030;-61
2022/11/24 01:09:30;;;;;;;0.10;0.10;;;;;;;4.53;100.00;99324.81;5027124;28;20061;-61
2022/11/24 01:12:02;;;;;;;0.08;0.00;;;;;;;4.46;100.00;99334.41;5026742;28;20442;-61
2022/11/24 01:14:29;;;;;;;0.15;0.15;;;;;;;4.56;100.00;99343.66;5025776;28;20491;-61
2022/11/24 01:16:55;;;;;;;6.95;0.85;;;;;;;4.70;100.00;99333.31;5024096;28;20511;-61
2022/11/24 01:19:21;;;;;;;0.00;0.00;;;;;;;4.71;100.00;99335.78;5023313;28;20031;-61
2022/11/24 01:21:46;;;;;;;0.77;0.15;;;;;;;4.66;100.00;99332.88;5022347;28;20120;-61
2022/11/24 01:24:12;;;;;;;1.95;0.85;;;;;;;4.51;100.00;99332.06;5024666;28;20112;-61
2022/11/24 01:26:38;;;;;;;0.60;0.00;;;;;;;4.48;100.00;99327.97;5023217;28;20053;-61
2022/11/24 01:29:04;;;;;;;1.30;0.80;;;;;;;4.40;100.00;99333.31;5023165;28;20068;-61
2022/11/24 01:31:29;;;;;;;5.78;0.10;;;;;;;4.39;100.00;99352.69;5015674;28;20038;-61
2022/11/24 01:33:54;;;;;;;0.30;0.00;;;;;;;4.32;100.00;99357.00;5012749;28;20026;-61
2022/11/24 01:36:20;;;;;;;0.10;0.05;;;;;;;4.35;100.00;99372.41;5023217;28;20071;-61
2022/11/24 01:38:46;;;;;;;0.30;0.00;;;;;;;4.40;100.00;99374.50;5026086;28;20478;-61
2022/11/24 01:41:13;;;;;;;0.22;0.10;;;;;;;4.33;100.00;99392.75;5029829;28;20041;-60
2022/11/24 01:43:41;;;;;;;1.75;0.35;;;;;;;4.25;100.00;99391.00;5028136;28;20028;-60
2022/11/24 01:46:25;;;;;;;0.08;0.00;;;;;;;4.31;100.00;99394.72;5024859;28;20103;-61
2022/11/24 01:49:00;;;;;;;2.78;0.52;;;;;;;4.18;100.00;99403.19;5018724;28;20022;-60
2022/11/24 01:51:28;;;;;;;0.30;0.00;;;;;;;4.18;100.00;99415.50;5021243;28;20018;-60
2022/11/24 01:53:59;;;;;;;0.32;0.00;;;;;;;4.17;100.00;99419.13;5020823;28;20533;-60
2022/11/24 01:56:26;;;;;;;3.40;0.10;;;;;;;4.06;100.00;99415.91;5028297;28;20072;-60
2022/11/24 01:58:54;;;;;;;0.65;0.05;;;;;;;4.02;100.00;99419.88;5022227;28;20076;-61
2022/11/24 02:01:19;;;;;;;1.98;0.05;;;;;;;4.03;100.00;99418.09;5019863;28;20065;-61
2022/11/24 02:03:47;;;;;;;4.05;0.57;;;;;;;3.98;100.00;99430.91;5026234;28;20100;-61
2022/11/24 02:06:19;;;;;;;0.20;0.20;;;;;;;3.94;100.00;99425.19;5019561;28;20501;-60
2022/11/24 02:08:55;;;;;;;3.35;0.05;;;;;;;3.97;100.00;99434.50;5022258;28;20382;-61
2022/11/24 02:11:22;;;;;;;2.58;0.25;;;;;;;3.94;100.00;99446.16;5021341;28;20446;-60
2022/11/24 02:13:50;;;;;;;1.55;0.00;;;;;;;3.93;100.00;99452.41;5024466;28;20040;-60
2022/11/24 02:16:15;;;;;;;0.95;0.10;;;;;;;3.87;100.00;99455.69;5026800;28;20028;-60
2022/11/24 02:18:42;;;;;;;1.17;0.15;;;;;;;3.92;100.00;99453.38;5003941;28;20022;-59
2022/11/24 02:21:10;;;;;;;2.33;0.47;;;;;;;3.93;100.00;99460.28;5023161;28;20041;-60
2022/11/24 02:23:44;;;;;;;2.45;0.47;;;;;;;3.95;100.00;99463.53;5024255;28;20414;-61
2022/11/24 02:26:34;;;;;;;3.00;0.50;;;;;;;3.90;100.00;99466.69;5024861;28;20491;-60
2022/11/24 02:29:01;;;;;;;4.30;0.95;;;;;;;3.92;100.00;99480.44;5026645;28;20053;-61
2022/11/24 02:31:26;;;;;;;0.68;0.65;;;;;;;3.95;100.00;99474.03;5006676;28;20100;-61
2022/11/24 02:33:52;;;;;;;0.88;0.10;;;;;;;3.97;100.00;99479.91;5027539;28;20451;-61
2022/11/24 02:36:17;;;;;;;5.50;0.10;;;;;;;3.97;100.00;99487.78;5021175;28;20038;-59
2022/11/24 02:38:43;;;;;;;3.88;0.10;;;;;;;3.89;100.00;99490.44;5022579;28;20025;-60
2022/11/24 02:41:15;;;;;;;5.80;0.13;;;;;;;3.86;100.00;99498.66;5025734;28;20387;-60
2022/11/24 02:43:45;;;;;;;3.33;0.85;;;;;;;3.79;100.00;99506.38;5025111;28;20115;-60
2022/11/24 02:46:11;;;;;;;4.95;0.50;;;;;;;3.76;100.00;99514.59;5028804;28;20071;-61
2022/11/24 02:48:37;;;;;;;3.38;0.10;;;;;;;3.77;100.00;99520.66;5031832;28;20375;-61
2022/11/24 02:51:03;;;;;;;5.97;0.28;;;;;;;3.81;100.00;99514.09;5029416;28;20091;-61
2022/11/24 02:53:28;;;;;;;0.30;0.00;;;;;;;3.79;100.00;99521.31;5020048;28;20041;-61
2022/11/24 02:55:53;;;;;;;3.97;0.20;;;;;;;3.74;100.00;99524.44;5027171;28;20045;-62
2022/11/24 02:58:19;;;;;;;1.20;0.63;;;;;;;3.77;100.00;99525.91;5028209;28;20343;-61
2022/11/24 03:00:44;;;;;;;3.45;0.90;;;;;;;3.73;100.00;99530.66;5025786;28;20075;-60
2022/11/24 03:03:10;;;;;;;2.15;1.92;;;;;;;3.76;100.00;99537.38;5022974;28;20017;-59
2022/11/24 03:05:35;;;;;;;6.78;1.10;;;;;;;3.70;100.00;99544.94;5028885;28;20438;-60
2022/11/24 03:08:00;;;;;;;1.58;0.10;;;;;;;3.67;100.00;99550.53;5031601;28;20030;-60
2022/11/24 03:10:27;;;;;;;3.67;0.40;;;;;;;3.61;100.00;99560.84;5026961;28;20053;-60
2022/11/24 03:12:53;;;;;;;3.75;0.03;;;;;;;3.60;100.00;99559.22;5025734;28;20109;-60
2022/11/24 03:15:19;;;;;;;0.45;0.10;;;;;;;3.53;100.00;99558.25;5021262;28;20041;-61
2022/11/24 03:17:44;;;;;;;2.20;0.35;;;;;;;3.54;100.00;99554.63;5030800;28;20029;-60
2022/11/24 03:20:10;;;;;;;0.17;0.00;;;;;;;3.53;100.00;99558.25;5025038;28;20035;-59
2022/11/24 03:22:35;;;;;;;8.50;1.67;;;;;;;3.59;100.00;99557.56;5017789;28;20033;-60
2022/11/24 03:25:01;;;;;;;1.85;0.00;;;;;;;3.59;100.00;99563.66;5023325;28;20499;-60
2022/11/24 03:27:26;;;;;;;2.30;0.32;;;;;;;3.54;100.00;99568.59;5017132;28;20044;-61
2022/11/24 03:29:52;;;;;;;1.13;0.13;;;;;;;3.46;100.00;99568.63;5029817;28;20467;-60
2022/11/24 03:32:17;;;;;;;7.45;1.42;;;;;;;3.53;100.00;99564.31;5026266;28;20072;-59
2022/11/24 03:34:42;;;;;;;4.72;0.25;;;;;;;3.53;100.00;99577.41;5020816;28;20072;-60
2022/11/24 03:37:08;;;;;;;3.00;1.65;;;;;;;3.46;100.00;99573.84;5029445;28;20133;-60
2022/11/24 03:39:33;;;;;;;2.28;0.10;;;;;;;3.48;100.00;99582.34;5025273;28;20463;-60
2022/11/24 03:41:58;;;;;;;2.20;0.38;;;;;;;3.49;100.00;99589.25;5026062;28;20513;-59
2022/11/24 03:44:24;;;;;;;2.65;0.60;;;;;;;3.35;100.00;99601.19;5028064;28;20183;-60
2022/11/24 03:46:50;;;;;;;1.27;0.00;;;;;;;2.99;100.00;99598.91;5021171;28;20100;-60
2022/11/24 03:49:16;;;;;;;2.05;0.73;;;;;;;2.71;100.00;99598.44;5027848;28;20018;-61
2022/11/24 03:51:41;;;;;;;0.50;0.25;;;;;;;2.51;100.00;99603.13;5024979;28;20351;-60
2022/11/24 03:54:07;;;;;;;1.25;0.25;;;;;;;2.35;100.00;99598.69;5021530;28;20467;-61
2022/11/24 03:56:32;;;;;;;0.32;0.10;;;;;;;2.22;100.00;99600.94;5023483;28;20102;-60
2022/11/24 03:58:57;;;;;;;1.35;0.00;;;;;;;2.18;100.00;99605.66;5024989;28;20041;-61
2022/11/24 04:01:23;;;;;;;1.45;0.17;;;;;;;2.10;100.00;99599.56;5025444;28;20140;-61
2022/11/24 04:03:48;;;;;;;0.35;0.10;;;;;;;2.04;100.00;99608.88;5019989;28;20028;-60
2022/11/24 04:06:13;;;;;;;1.70;0.08;;;;;;;1.95;100.00;99612.41;5027122;28;20485;-60
2022/11/24 04:08:39;;;;;;;5.68;0.00;;;;;;;1.85;100.00;99620.38;5026738;28;20664;-61
2022/11/24 04:11:04;;;;;;;0.98;0.00;;;;;;;1.77;100.00;99616.91;5025561;28;20148;-61
2022/11/24 04:13:29;;;;;;;1.00;0.30;;;;;;;1.71;100.00;99616.56;5021148;28;20334;-60
2022/11/24 04:15:55;;;;;;;6.22;0.95;;;;;;;1.65;100.00;99614.56;5021847;28;20041;-60
2022/11/24 04:18:20;;;;;;;1.35;1.25;;;;;;;1.60;100.00;99613.38;5025767;28;20057;-60
2022/11/24 04:20:51;;;;;;;2.05;0.00;;;;;;;1.55;100.00;99624.31;5029407;28;20402;-60
2022/11/24 04:23:16;;;;;;;2.00;0.10;;;;;;;1.44;100.00;99620.13;5021952;28;20025;-60
2022/11/24 04:25:42;;;;;;;0.85;0.10;;;;;;;1.37;100.00;99623.50;5027817;28;20040;-60
2022/11/24 04:28:09;;;;;;;0.17;0.00;;;;;;;1.31;100.00;99625.75;5024353;28;20734;-61
2022/11/24 04:30:35;;;;;;;0.28;0.00;;;;;;;1.20;100.00;99625.19;5026776;28;20550;-60
2022/11/24 04:33:00;;;;;;;13.15;1.25;;;;;;;1.15;100.00;99633.47;5022160;28;20148;-60
2022/11/24 04:35:26;;;;;;;0.60;0.10;;;;;;;1.16;100.00;99623.84;5020579;28;20034;-60
2022/11/24 04:37:51;;;;;;;1.75;0.20;;;;;;;1.12;100.00;99638.19;5029316;28;20056;-60
2022/11/24 04:40:17;;;;;;;1.33;0.10;;;;;;;1.03;100.00;99645.94;5023673;28;20529;-60
2022/11/24 04:42:42;;;;;;;1.30;0.10;;;;;;;0.98;100.00;99648.19;5022276;28;20415;-60
2022/11/24 04:45:09;;;;;;;0.15;0.00;;;;;;;0.91;100.00;99648.94;5023480;28;20025;-60
2022/11/24 04:47:35;;;;;;;0.05;0.05;;;;;;;0.86;100.00;99660.63;5019446;28;20167;-60
2022/11/24 04:50:00;;;;;;;0.00;0.00;;;;;;;0.86;100.00;99658.00;5025783;28;20120;-58
2022/11/24 04:52:26;;;;;;;0.75;0.20;;;;;;;0.79;100.00;99650.94;5030175;28;20061;-61
2022/11/24 04:54:51;;;;;;;0.50;0.20;;;;;;;0.72;100.00;99655.09;5016479;28;20092;-60
2022/11/24 04:57:16;;;;;;;3.40;0.03;;;;;;;0.65;100.00;99647.84;5029334;28;20045;-60
2022/11/24 04:59:42;;;;;;;0.47;0.00;;;;;;;0.67;100.00;99654.72;5024333;28;20025;-60
2022/11/24 05:02:08;;;;;;;0.43;0.00;;;;;;;0.61;100.00;99651.72;5025855;28;20041;-60
2022/11/24 05:04:33;;;;;;;5.28;0.40;;;;;;;0.53;100.00;99659.47;5024647;28;20037;-60
2022/11/24 05:06:59;;;;;;;2.08;0.00;;;;;;;0.48;100.00;99666.09;5024293;28;20457;-58
2022/11/24 05:09:24;;;;;;;0.88;0.10;;;;;;;0.50;100.00;99664.97;5035097;28;20041;-60
2022/11/24 05:11:49;;;;;;;1.50;0.30;;;;;;;0.45;100.00;99667.19;5031798;28;20022;-60
2022/11/24 05:14:15;;;;;;;1.30;0.20;;;;;;;0.37;100.00;99672.31;5018959;28;20025;-60
2022/11/24 05:16:40;;;;;;;2.65;0.50;;;;;;;0.29;100.00;99669.63;5026609;28;20033;-60
2022/11/24 05:19:05;;;;;;;0.10;0.10;;;;;;;0.22;100.00;99675.41;5020764;28;20032;-60
2022/11/24 05:21:31;;;;;;;2.70;0.20;;;;;;;0.18;100.00;99671.47;5027631;28;20545;-60
2022/11/24 05:23:56;;;;;;;2.40;0.30;;;;;;;0.10;100.00;99686.16;5025379;28;20037;-60
2022/11/24 05:26:21;;;;;;;1.67;1.02;;;;;;;0.00;100.00;99681.00;5029543;28;20033;-61
2022/11/24 05:28:46;;;;;;;1.65;0.10;;;;;;;-0.03;100.00;99687.31;5030087;28;20036;-60
2022/11/24 05:31:12;;;;;;;0.52;0.03;;;;;;;-0.05;100.00;99681.41;5026257;28;20029;-60
2022/11/24 05:33:37;;;;;;;0.73;0.03;;;;;;;-0.11;100.00;99676.75;5026197;28;20483;-60
2022/11/24 05:36:05;;;;;;;0.35;0.10;;;;;;;-0.13;100.00;99693.50;5023319;28;20021;-60
2022/11/24 05:38:31;;;;;;;1.85;0.00;;;;;;;-0.14;100.00;99694.47;5024389;28;20032;-60
2022/11/24 05:41:04;;;;;;;2.13;0.85;;;;;;;-0.08;100.00;99702.56;5027860;28;20072;-60
2022/11/24 05:43:29;;;;;;;2.47;0.20;;;;;;;-0.15;100.00;99698.88;5022156;28;20091;-61
2022/11/24 05:45:59;;;;;;;3.42;0.00;;;;;;;-0.18;100.00;99708.72;5022943;28;20033;-61
2022/11/24 05:48:24;;;;;;;6.30;0.32;;;;;;;-0.25;100.00;99709.31;5028059;28;20524;-60
2022/11/24 05:50:57;;;;;;;1.40;0.10;;;;;;;-0.20;100.00;99723.69;5008089;28;20029;-60
2022/11/24 05:53:24;;;;;;;0.70;0.10;;;;;;;-0.24;100.00;99723.13;5029795;28;20105;-60
2022/11/24 05:55:49;;;;;;;1.25;0.00;;;;;;;-0.27;100.00;99729.44;5023376;28;20083;-60
2022/11/24 05:58:15;;;;;;;3.05;0.03;;;;;;;-0.30;100.00;99734.94;5024926;28;20111;-60
2022/11/24 06:00:40;;;;;;;4.50;0.28;;;;;;;-0.30;100.00;99740.16;5024258;28;20033;-60
2022/11/24 06:03:06;;;;;;;1.55;0.65;;;;;;;-0.32;100.00;99739.47;5023349;28;20502;-60
2022/11/24 06:05:31;;;;;;;3.30;0.30;;;;;;;-0.31;100.00;99743.75;5027849;28;20048;-60
2022/11/24 06:07:58;;;;;;;0.82;0.00;;;;;;;-0.31;100.00;99742.88;5022375;28;20398;-59
2022/11/24 06:10:23;;;;;;;2.00;0.85;;;;;;;-0.39;100.00;99743.59;5024436;28;20164;-60
2022/11/24 06:12:49;;;;;;;5.72;0.47;;;;;;;-0.41;100.00;99742.91;5028598;28;20114;-60
2022/11/24 06:15:16;;;;;;;2.42;0.30;;;;;;;-0.45;100.00;99731.94;5020363;28;20360;-60
2022/11/24 06:17:41;;;;;;;3.42;0.20;;;;;;;-0.48;100.00;99737.44;5030262;28;20034;-59
2022/11/24 06:20:08;;;;;;;3.90;0.25;;;;;;;-0.53;100.00;99734.41;5024926;28;20037;-60
2022/11/24 06:22:34;;;;;;;0.65;0.08;;;;;;;-0.55;100.00;99728.53;5024007;28;20052;-60
2022/11/24 06:25:00;;;;;;;0.47;0.22;;;;;;;-0.61;100.00;99728.25;5030242;28;20053;-60
2022/11/24 06:27:25;;;;;;;0.28;0.03;;;;;;;-0.62;100.00;99726.59;5024032;28;20031;-60
2022/11/24 06:29:50;;;;;;;2.20;0.20;;;;;;;-0.68;100.00;99739.22;5039592;28;20128;-60
2022/11/24 06:32:16;;;;;;;0.40;0.40;;;;;;;-0.70;100.00;99746.34;5026618;28;20079;-60
2022/11/24 06:34:42;;;;;;;0.63;0.03;;;;;;;-0.71;100.00;99749.91;5018161;28;20143;-60
2022/11/24 06:37:08;;;;;;;0.45;0.20;;;;;;;-0.70;100.00;99740.31;5028749;28;20474;-60
2022/11/24 06:39:33;;;;;;;1.65;0.55;;;;;;;-0.70;100.00;99758.53;5030063;28;20029;-60
2022/11/24 06:41:59;;;;;;;2.30;0.20;;;;;;;-0.71;100.00;99752.50;5023027;28;20026;-60
2022/11/24 06:44:24;;;;;;;0.90;0.17;;;;;;;-0.71;100.00;99752.50;5030962;28;20033;-60
2022/11/24 06:46:49;;;;;;;1.00;0.20;;;;;;;-0.77;100.00;99747.84;5026443;28;20118;-61
2022/11/24 06:49:15;;;;;;;2.60;0.22;;;;;;;-0.81;100.00;99745.66;5006797;28;20505;-60
2022/11/24 06:51:43;;;;;;;6.00;0.45;;;;;;;-0.83;100.00;99757.97;5028177;28;20040;-60
2022/11/24 06:54:13;;;;;;;3.00;0.80;;;;;;;-0.82;100.00;99749.22;5030845;28;20037;-60
2022/11/24 06:56:38;;;;;;;0.10;0.00;;;;;;;-0.85;100.00;99745.09;5004856;28;20033;-61
2022/11/24 06:59:04;;;;;;;7.32;0.30;;;;;;;-0.85;100.00;99759.88;5022307;28;20021;-60
2022/11/24 07:01:29;;;;;;;1.98;0.55;;;;;;;-0.85;100.00;99760.72;5022655;28;20395;-60
2022/11/24 07:03:55;;;;;;;1.75;0.20;;;;;;;-0.85;100.00;99765.94;5022076;28;20076;-60
2022/11/24 07:06:22;;;;;;;3.40;0.22;;;;;;;-0.84;100.00;99772.78;5022424;28;20056;-60
2022/11/24 07:08:48;;;;;;;7.97;0.43;;;;;;;-0.83;100.00;99774.41;5025741;28;20123;-61
2022/11/24 07:11:17;;;;;;;2.53;0.35;;;;;;;-0.80;100.00;99776.75;5024693;28;20105;-61
2022/11/24 07:13:43;;;;;;;2.10;0.13;;;;;;;-0.86;100.00;99779.88;5021070;28;20033;-61
2022/11/24 07:16:14;;;;;;;3.17;0.20;;;;;;;-0.89;100.00;99769.75;5020870;28;20025;-60
2022/11/24 07:18:40;;;;;;;1.48;0.28;;;;;;;-0.91;100.00;99771.66;5003321;28;20052;-60
2022/11/24 07:21:06;;;;;;;0.35;0.08;;;;;;;-0.90;100.00;99778.53;5022339;28;20509;-60
2022/11/24 07:23:31;;;;;;;0.10;0.10;;;;;;;-0.97;100.00;99787.81;5018521;28;20430;-60
2022/11/24 07:25:57;;;;;;;4.05;0.63;;;;;;;-1.01;100.00;99782.03;5021335;28;20067;-60
2022/11/24 07:28:23;;;;;;;3.28;0.57;;;;;;;-1.02;100.00;99790.81;5020946;28;20035;-60
2022/11/24 07:30:48;;;;;;;0.70;0.10;;;;;;;-1.03;100.00;99798.75;5016381;28;20502;-59
2022/11/24 07:33:14;;;;;;;0.82;0.38;;;;;;;-1.00;100.00;99791.50;5019167;28;20029;-61
2022/11/24 07:35:40;;;;;;;3.22;0.50;;;;;;;-1.03;100.00;99788.34;5019192;28;20029;-60
2022/11/24 07:38:05;;;;;;;4.97;0.52;;;;;;;-0.98;100.00;99786.16;5023270;28;20033;-60
2022/11/24 07:40:31;;;;;;;4.07;0.20;;;;;;;-0.88;100.00;99792.19;5019624;28;20033;-60
2022/11/24 07:42:59;;;;;;;4.07;0.15;;;;;;;-0.81;100.00;99793.31;5021128;28;20026;-60
2022/11/24 07:45:24;;;;;;;1.17;0.10;;;;;;;-0.86;100.00;99794.69;5019767;28;20040;-60
2022/11/24 07:47:49;;;;;;;4.43;0.40;;;;;;;-0.89;100.00;99791.38;5023545;28;20033;-60
2022/11/24 07:50:15;;;;;;;6.22;0.08;;;;;;;-0.86;100.00;99805.09;5026988;28;20061;-60
2022/11/24 07:52:41;;;;;;;1.65;0.00;;;;;;;-0.86;100.00;99792.91;5028509;28;20075;-60
2022/11/24 07:55:06;;;;;;;1.58;0.13;;;;;;;-0.82;100.00;99794.28;5022913;28;20032;-59
2022/11/24 07:57:32;;;;;;;2.15;0.30;;;;;;;-0.84;100.00;99804.00;5026403;28;20033;-60
2022/11/24 07:59:57;;;;;;;4.32;1.08;;;;;;;-0.85;100.00;99791.97;5024162;28;20490;-60
2022/11/24 08:02:23;;;;;;;3.00;0.55;;;;;;;-0.79;100.00;99788.81;5026508;28;20033;-60
2022/11/24 08:04:48;;;;;;;1.00;0.90;;;;;;;-0.72;100.00;99787.31;5022773;28;20194;-60
2022/11/24 08:07:13;;;;;;;10.07;0.73;;;;;;;-0.62;100.00;99787.34;5023691;28;20073;-60
2022/11/24 08:09:38;;;;;;;2.53;0.20;;;;;;;-0.52;100.00;99793.34;5022750;28;20135;-59
2022/11/24 08:12:04;;;;;;;1.15;0.52;;;;;;;-0.44;100.00;99784.84;5016836;28;20072;-60
2022/11/24 08:14:29;;;;;;;1.80;0.45;;;;;;;-0.37;100.00;99777.31;5022250;28;20049;-58
2022/11/24 08:16:56;;;;;;;5.07;0.20;;;;;;;-0.31;100.00;99774.16;5017977;28;20117;-60
2022/11/24 08:19:22;;;;;;;1.55;0.63;;;;;;;-0.26;100.00;99770.19;5020347;28;20033;-60
2022/11/24 08:21:47;;;;;;;2.10;1.13;;;;;;;-0.14;100.00;99760.44;5021114;28;20034;-60
2022/11/24 08:24:14;;;;;;;1.90;0.15;;;;;;;-0.10;100.00;99769.63;5022697;28;20029;-60
2022/11/24 08:26:40;;;;;;;2.25;0.77;;;;;;;-0.05;100.00;99764.81;5021375;28;20379;-61
2022/11/24 08:29:06;;;;;;;2.17;0.35;;;;;;;0.03;100.00;99776.31;5024277;28;20041;-60
2022/11/24 08:31:32;;;;;;;2.30;0.45;;;;;;;0.10;100.00;99782.59;5028741;28;20025;-60
2022/11/24 08:33:58;;;;;;;2.35;0.30;;;;;;;0.17;100.00;99794.13;5026049;28;20029;-60
2022/11/24 08:36:24;;;;;;;3.42;0.63;;;;;;;0.23;100.00;99785.72;5025552;28;20025;-60
2022/11/24 08:38:57;;;;;;;7.38;0.98;;;;;;;0.31;100.00;99792.84;5028330;28;20029;-60
2022/11/24 08:41:23;;;;;;;5.85;1.08;;;;;;;0.34;100.00;99795.19;5026253;28;20459;-61
2022/11/24 08:43:49;;;;;;;4.90;1.08;;;;;;;0.36;100.00;99793.25;5025252;28;20037;-60
2022/11/24 08:46:16;;;;;;;3.35;0.43;;;;;;;0.39;100.00;99783.38;5026369;28;20144;-58
2022/11/24 08:48:43;;;;;;;3.80;1.05;;;;;;;0.43;100.00;99789.09;5024820;28;20061;-60
2022/11/24 08:51:14;;;;;;;1.13;0.80;;;;;;;0.54;100.00;99791.56;5024112;28;20100;-60
2022/11/24 08:53:40;;;;;;;3.00;0.45;;;;;;;0.64;100.00;99797.53;5030729;28;20033;-59
2022/11/24 08:56:07;;;;;;;1.55;0.38;;;;;;;0.75;100.00;99798.31;5019303;28;20033;-60
2022/11/24 08:58:32;;;;;;;8.93;0.60;;;;;;;0.86;100.00;99788.50;5027825;28;20033;-58
2022/11/24 09:01:08;;;;;;;4.85;0.63;;;;;;;0.99;100.00;99775.13;5027804;28;20047;-60
2022/11/24 09:03:33;;;;;;;2.95;0.60;;;;;;;1.08;100.00;99786.47;5024938;28;20029;-60
2022/11/24 09:06:00;;;;;;;7.05;0.80;;;;;;;1.17;100.00;99787.38;5024336;28;20037;-60
2022/11/24 09:08:25;;;;;;;6.95;0.45;;;;;;;1.23;100.00;99790.22;5018527;28;20033;-60
2022/11/24 09:10:51;;;;;;;2.22;0.60;;;;;;;1.34;100.00;99789.19;5020316;28;20053;-60
2022/11/24 09:13:16;;;;;;;2.33;0.63;;;;;;;1.51;100.00;99798.00;5026011;28;20032;-60
2022/11/24 09:15:42;;;;;;;1.77;0.40;;;;;;;1.67;100.00;99794.72;5030056;28;20482;-59
2022/11/24 09:18:07;;;;;;;5.35;1.17;;;;;;;1.83;100.00;99794.03;5009507;28;20033;-60
2022/11/24 09:20:33;;;;;;;3.50;0.82;;;;;;;2.09;100.00;99796.66;5029328;28;20041;-60
2022/11/24 09:22:59;;;;;;;7.47;1.70;;;;;;;2.50;100.00;99795.13;5031724;28;20029;-59
2022/11/24 09:25:24;;;;;;;4.82;0.77;;;;;;;3.30;100.00;99794.78;5033398;28;20352;-60
2022/11/24 09:27:50;;;;;;;10.35;2.85;;;;;;;3.83;100.00;99805.81;5031334;28;20039;-60
2022/11/24 09:30:16;;;;;;;12.93;1.27;;;;;;;4.21;100.00;99819.25;5028639;28;20033;-60
2022/11/24 09:32:41;;;;;;;12.32;1.38;;;;;;;4.45;100.00;99816.59;5030412;28;20255;-60
2022/11/24 09:35:07;;;;;;;15.15;2.80;;;;;;;4.58;100.00;99809.00;5024649;28;20029;-60
2022/11/24 09:37:33;;;;;;;11.43;1.23;;;;;;;4.87;100.00;99814.66;5026843;28;20501;-60
2022/11/24 09:39:58;;;;;;;14.65;2.08;;;;;;;4.95;100.00;99807.56;5027630;28;20116;-60
2022/11/24 09:42:35;;;;;;;18.92;2.22;;;;;;;5.11;100.00;99806.69;5029195;28;20029;-60
2022/11/24 09:45:23;;;;;;;8.35;2.40;;;;;;;5.22;100.00;99794.97;5024107;28;20116;-60
2022/11/24 09:48:01;;;;;;;8.32;2.55;;;;;;;5.21;100.00;99802.03;5029769;28;20166;-61
2022/11/24 09:50:34;;;;;;;12.35;1.45;;;;;;;5.25;100.00;99794.63;5025813;28;20162;-61
2022/11/24 09:53:10;;;;;;;12.18;0.88;;;;;;;5.22;100.00;99801.03;5033709;28;20113;-62
2022/11/24 09:55:45;;;;;;;13.13;2.08;;;;;;;5.35;100.00;99808.34;5028570;28;20044;-61
2022/11/24 09:58:16;;;;;;;25.70;4.00;;;;;;;5.53;100.00;99794.13;5031010;28;20025;-61
2022/11/24 10:00:42;;;;;;;14.20;1.98;;;;;;;5.76;100.00;99792.31;5030501;28;20033;-61
2022/11/24 10:03:18;;;;;;;13.07;2.65;;;;;;;6.07;100.00;99786.97;5030237;28;20514;-61
2022/11/24 10:05:45;;;;;;;9.30;1.85;;;;;;;6.23;100.00;99783.34;5028197;28;20079;-61
2022/11/24 10:08:19;;;;;;;11.55;2.10;;;;;;;6.44;100.00;99781.84;5027536;28;20025;-61
2022/11/24 10:10:58;;;;;;;11.88;2.13;;;;;;;6.58;100.00;99774.94;5031103;28;20049;-61
2022/11/24 10:14:05;;;;;;;10.82;2.97;;;;;;;6.68;100.00;99773.66;5019122;28;20100;-61
2022/11/24 10:16:42;;;;;;;14.20;2.38;;;;;;;6.66;100.00;99766.91;5034237;28;20063;-61
2022/11/24 10:19:13;;;;;;;17.20;1.92;;;;;;;6.71;100.00;99768.03;5027272;28;20379;-61
2022/11/24 10:21:59;;;;;;;11.68;3.00;;;;;;;6.78;100.00;99760.19;5030386;28;20041;-60
2022/11/24 10:24:39;;;;;;;22.77;3.58;;;;;;;6.92;100.00;99753.28;5024282;28;20033;-61
2022/11/24 10:27:33;;;;;;;19.95;4.50;;;;;;;7.10;100.00;99751.06;5023208;28;20040;-62
2022/11/24 10:30:00;;;;;;;10.98;2.25;;;;;;;7.27;100.00;99750.81;5030487;28;20025;-62
2022/11/24 10:32:35;;;;;;;14.82;2.17;;;;;;;7.52;100.00;99749.44;5031682;28;20031;-62
2022/11/24 10:35:29;;;;;;;10.95;2.13;;;;;;;7.76;100.00;99736.88;5028096;28;20033;-61
2022/11/24 10:38:24;;;;;;;13.27;2.53;;;;;;;7.90;100.00;99727.22;5028552;28;20032;-62
2022/11/24 10:41:15;;;;;;;22.83;4.82;;;;;;;8.06;100.00;99709.28;5017621;28;20037;-62
2022/11/24 10:43:41;;;;;;;14.25;2.97;;;;;;;8.12;100.00;99710.31;5021095;28;20018;-64
2022/11/24 10:46:15;;;;;;;34.00;6.50;;;;;;;8.18;100.00;99690.25;5022807;28;20550;-63
2022/11/24 10:48:53;;;;;;;19.67;5.32;;;;;;;8.21;100.00;99687.19;5027132;28;20111;-63
2022/11/24 10:51:31;;;;;;;17.13;3.67;;;;;;;8.27;100.00;99679.31;5023372;28;20474;-63
2022/11/24 10:54:04;;;;;;;13.35;3.20;;;;;;;8.36;100.00;99671.22;5023541;28;20029;-63
2022/11/24 10:56:40;;;;;;;25.05;4.72;;;;;;;8.58;100.00;99658.78;5025910;28;20029;-62
2022/11/24 10:59:23;;;;;;;16.23;4.03;;;;;;;8.67;100.00;99652.28;5028558;28;20033;-63
2022/11/24 11:01:50;;;;;;;23.95;4.13;;;;;;;8.67;100.00;99647.00;5023421;28;20037;-63
2022/11/24 11:04:25;;;;;;;11.25;5.00;;;;;;;8.68;100.00;99632.78;5036613;28;20108;-65
2022/11/24 11:06:50;;;;;;;19.85;4.60;;;;;;;8.77;100.00;99622.84;5032640;28;20393;-62
2022/11/24 11:09:18;;;;;;;24.77;3.97;;;;;;;8.91;100.00;99613.94;5038051;28;20048;-63
2022/11/24 11:11:47;;;;;;;36.00;3.58;;;;;;;9.03;100.00;99609.66;5025049;28;20062;-63
2022/11/24 11:14:28;;;;;;;14.75;3.53;;;;;;;9.25;100.00;99599.72;5026555;28;20071;-62
2022/11/24 11:16:56;;;;;;;18.52;4.03;;;;;;;9.37;100.00;99590.16;5026662;28;20068;-64
2022/11/24 11:19:35;;;;;;;17.27;3.17;;;;;;;9.53;100.00;99582.81;5027488;28;20079;-62
2022/11/24 11:22:11;;;;;;;19.25;3.05;;;;;;;9.66;100.00;99574.84;5021269;28;20037;-62
2022/11/24 11:24:41;;;;;;;8.63;2.47;;;;;;;9.74;100.00;99565.84;5027988;28;20026;-64
2022/11/24 11:27:23;;;;;;;15.20;3.17;;;;;;;9.78;100.00;99551.16;5029574;28;20022;-63
2022/11/24 11:29:50;;;;;;;15.80;2.75;;;;;;;9.83;100.00;99536.31;5028459;28;20259;-63
2022/11/24 11:32:20;;;;;;;11.32;3.13;;;;;;;9.96;100.00;99532.78;5028100;28;20033;-63